sensor_id;sensor_type;location;lat;lon;timestamp;temperature;humidity
15937;DHT22;9163;48.818;8.976;2024-02-26T00:02:23;6.10;99.90
15937;DHT22;9163;48.818;8.976;2024-02-26T00:04:52;6.00;99.90
15937;DHT22;9163;48.818;8.976;2024-02-26T00:07:19;6.00;99.90
15937;DHT22;9163;48.818;8.976;2024-02-26T00:09:46;6.00;99.90
15937;DHT22;9163;48.818;8.976;2024-02-26T00:12:14;5.90;99.90
15937;DHT22;9163;48.818;8.976;2024-02-26T00:14:41;6.00;99.90
15937;DHT22;9163;48.818;8.976;2024-02-26T00:17:08;5.90;99.90
15937;DHT22;9163;48.818;8.976;2024-02-26T00:19:36;5.90;99.90
15937;DHT22;9163;48.818;8.976;2024-02-26T00:22:04;5.90;99.90
15937;DHT22;9163;48.818;8.976;2024-02-26T00:24:31;6.00;99.90
15937;DHT22;9163;48.818;8.976;2024-02-26T00:26:59;6.10;99.90
15937;DHT22;9163;48.818;8.976;2024-02-26T00:29:26;6.10;1.00
15937;DHT22;9163;48.818;8.976;2024-02-26T00:31:53;6.00;1.00
15937;DHT22;9163;48.818;8.976;2024-02-26T00:34:21;6.00;1.00
15937;DHT22;9163;48.818;8.976;2024-02-26T00:36:48;6.00;1.00
15937;DHT22;9163;48.818;8.976;2024-02-26T00:39:16;6.00;1.00
15937;DHT22;9163;48.818;8.976;2024-02-26T00:41:44;6.00;1.00
15937;DHT22;9163;48.818;8.976;2024-02-26T00:44:11;6.00;1.00
15937;DHT22;9163;48.818;8.976;2024-02-26T00:46:38;6.00;1.00
15937;DHT22;9163;48.818;8.976;2024-02-26T00:49:05;6.10;1.00
15937;DHT22;9163;48.818;8.976;2024-02-26T00:51:33;6.10;1.00
15937;DHT22;9163;48.818;8.976;2024-02-26T00:54:00;6.10;1.00
15937;DHT22;9163;48.818;8.976;2024-02-26T00:56:29;6.10;1.00
15937;DHT22;9163;48.818;8.976;2024-02-26T00:58:56;6.10;1.00
15937;DHT22;9163;48.818;8.976;2024-02-26T01:01:24;6.10;1.00
15937;DHT22;9163;48.818;8.976;2024-02-26T01:03:51;6.10;1.00
15937;DHT22;9163;48.818;8.976;2024-02-26T01:06:18;6.00;1.00
15937;DHT22;9163;48.818;8.976;2024-02-26T01:08:45;6.10;1.00
15937;DHT22;9163;48.818;8.976;2024-02-26T01:11:13;6.10;1.00
15937;DHT22;9163;48.818;8.976;2024-02-26T01:13:41;6.20;1.00
15937;DHT22;9163;48.818;8.976;2024-02-26T01:16:08;6.20;1.00
15937;DHT22;9163;48.818;8.976;2024-02-26T01:18:36;6.10;1.00
15937;DHT22;9163;48.818;8.976;2024-02-26T01:21:04;6.20;1.00
15937;DHT22;9163;48.818;8.976;2024-02-26T01:23:32;6.30;1.00
15937;DHT22;9163;48.818;8.976;2024-02-26T01:26:00;6.20;1.00
15937;DHT22;9163;48.818;8.976;2024-02-26T01:28:28;6.10;1.00
15937;DHT22;9163;48.818;8.976;2024-02-26T01:30:57;6.10;1.00
15937;DHT22;9163;48.818;8.976;2024-02-26T01:33:26;6.10;1.00
15937;DHT22;9163;48.818;8.976;2024-02-26T01:35:53;6.20;99.90
15937;DHT22;9163;48.818;8.976;2024-02-26T01:38:20;6.20;1.00
15937;DHT22;9163;48.818;8.976;2024-02-26T01:40:47;6.30;1.00
15937;DHT22;9163;48.818;8.976;2024-02-26T01:43:15;6.20;1.00
15937;DHT22;9163;48.818;8.976;2024-02-26T01:45:42;6.20;1.00
15937;DHT22;9163;48.818;8.976;2024-02-26T01:48:10;6.10;1.00
15937;DHT22;9163;48.818;8.976;2024-02-26T01:50:39;6.10;1.00
15937;DHT22;9163;48.818;8.976;2024-02-26T01:53:08;6.00;1.00
15937;DHT22;9163;48.818;8.976;2024-02-26T01:55:36;6.00;1.00
15937;DHT22;9163;48.818;8.976;2024-02-26T01:58:04;6.00;1.00
15937;DHT22;9163;48.818;8.976;2024-02-26T02:00:32;6.10;1.00
15937;DHT22;9163;48.818;8.976;2024-02-26T02:03:00;6.10;1.00
15937;DHT22;9163;48.818;8.976;2024-02-26T02:05:30;6.10;1.00
15937;DHT22;9163;48.818;8.976;2024-02-26T02:07:58;6.10;1.00
15937;DHT22;9163;48.818;8.976;2024-02-26T02:10:26;6.10;1.00
15937;DHT22;9163;48.818;8.976;2024-02-26T02:12:54;6.10;1.00
15937;DHT22;9163;48.818;8.976;2024-02-26T02:15:21;6.10;1.00
15937;DHT22;9163;48.818;8.976;2024-02-26T02:17:49;6.00;1.00
15937;DHT22;9163;48.818;8.976;2024-02-26T02:20:16;6.00;1.00
15937;DHT22;9163;48.818;8.976;2024-02-26T02:22:46;6.00;1.00
15937;DHT22;9163;48.818;8.976;2024-02-26T02:25:13;6.00;1.00
15937;DHT22;9163;48.818;8.976;2024-02-26T02:27:41;5.90;1.00
15937;DHT22;9163;48.818;8.976;2024-02-26T02:30:10;5.80;1.00
15937;DHT22;9163;48.818;8.976;2024-02-26T02:32:40;5.80;1.00
15937;DHT22;9163;48.818;8.976;2024-02-26T02:35:08;5.90;1.00
15937;DHT22;9163;48.818;8.976;2024-02-26T02:37:35;6.00;1.00
15937;DHT22;9163;48.818;8.976;2024-02-26T02:40:05;6.00;1.00
15937;DHT22;9163;48.818;8.976;2024-02-26T02:42:33;6.00;1.00
15937;DHT22;9163;48.818;8.976;2024-02-26T02:45:00;6.10;1.00
15937;DHT22;9163;48.818;8.976;2024-02-26T02:47:27;6.30;1.00
15937;DHT22;9163;48.818;8.976;2024-02-26T02:49:55;6.30;1.00
15937;DHT22;9163;48.818;8.976;2024-02-26T02:52:22;6.30;1.00
15937;DHT22;9163;48.818;8.976;2024-02-26T02:54:49;6.40;1.00
15937;DHT22;9163;48.818;8.976;2024-02-26T02:57:18;6.30;1.00
15937;DHT22;9163;48.818;8.976;2024-02-26T02:59:46;6.30;1.00
15937;DHT22;9163;48.818;8.976;2024-02-26T03:02:14;6.30;1.00
15937;DHT22;9163;48.818;8.976;2024-02-26T03:04:41;6.40;1.00
15937;DHT22;9163;48.818;8.976;2024-02-26T03:07:08;6.50;1.00
15937;DHT22;9163;48.818;8.976;2024-02-26T03:09:35;6.60;1.00
15937;DHT22;9163;48.818;8.976;2024-02-26T03:12:02;6.60;1.00
15937;DHT22;9163;48.818;8.976;2024-02-26T03:14:30;6.60;1.00
15937;DHT22;9163;48.818;8.976;2024-02-26T03:16:57;6.70;1.00
15937;DHT22;9163;48.818;8.976;2024-02-26T03:19:25;6.90;1.00
15937;DHT22;9163;48.818;8.976;2024-02-26T03:21:52;6.80;1.00
15937;DHT22;9163;48.818;8.976;2024-02-26T03:24:19;6.80;1.00
15937;DHT22;9163;48.818;8.976;2024-02-26T03:26:46;6.80;1.00
15937;DHT22;9163;48.818;8.976;2024-02-26T03:29:13;6.90;1.00
15937;DHT22;9163;48.818;8.976;2024-02-26T03:31:42;7.00;1.00
15937;DHT22;9163;48.818;8.976;2024-02-26T03:34:09;7.10;1.00
15937;DHT22;9163;48.818;8.976;2024-02-26T03:36:38;7.10;1.00
15937;DHT22;9163;48.818;8.976;2024-02-26T03:39:05;7.00;1.00
15937;DHT22;9163;48.818;8.976;2024-02-26T03:41:33;6.90;1.00
15937;DHT22;9163;48.818;8.976;2024-02-26T03:44:01;6.80;1.00
15937;DHT22;9163;48.818;8.976;2024-02-26T03:46:28;6.80;1.00
15937;DHT22;9163;48.818;8.976;2024-02-26T03:48:56;6.80;1.00
15937;DHT22;9163;48.818;8.976;2024-02-26T03:51:24;6.80;1.00
15937;DHT22;9163;48.818;8.976;2024-02-26T03:53:51;6.70;1.00
15937;DHT22;9163;48.818;8.976;2024-02-26T03:56:18;6.70;1.00
15937;DHT22;9163;48.818;8.976;2024-02-26T03:58:46;6.60;1.00
15937;DHT22;9163;48.818;8.976;2024-02-26T04:01:13;6.70;1.00
15937;DHT22;9163;48.818;8.976;2024-02-26T04:03:41;6.70;1.00
15937;DHT22;9163;48.818;8.976;2024-02-26T04:06:11;6.70;1.00
15937;DHT22;9163;48.818;8.976;2024-02-26T04:08:40;6.70;1.00
15937;DHT22;9163;48.818;8.976;2024-02-26T04:11:07;6.70;1.00
15937;DHT22;9163;48.818;8.976;2024-02-26T04:13:35;6.60;1.00
15937;DHT22;9163;48.818;8.976;2024-02-26T04:16:04;6.60;1.00
15937;DHT22;9163;48.818;8.976;2024-02-26T04:18:32;6.50;1.00
15937;DHT22;9163;48.818;8.976;2024-02-26T04:20:59;6.50;1.00
15937;DHT22;9163;48.818;8.976;2024-02-26T04:23:27;6.50;1.00
15937;DHT22;9163;48.818;8.976;2024-02-26T04:25:55;6.50;1.00
15937;DHT22;9163;48.818;8.976;2024-02-26T04:28:22;6.50;1.00
15937;DHT22;9163;48.818;8.976;2024-02-26T04:30:51;6.50;1.00
15937;DHT22;9163;48.818;8.976;2024-02-26T04:33:18;6.50;1.00
15937;DHT22;9163;48.818;8.976;2024-02-26T04:35:45;6.50;1.00
15937;DHT22;9163;48.818;8.976;2024-02-26T04:38:13;6.60;1.00
15937;DHT22;9163;48.818;8.976;2024-02-26T04:40:41;6.70;1.00
15937;DHT22;9163;48.818;8.976;2024-02-26T04:43:08;6.70;1.00
15937;DHT22;9163;48.818;8.976;2024-02-26T04:45:36;6.70;1.00
15937;DHT22;9163;48.818;8.976;2024-02-26T04:48:03;6.60;1.00
15937;DHT22;9163;48.818;8.976;2024-02-26T04:50:30;6.50;1.00
15937;DHT22;9163;48.818;8.976;2024-02-26T04:52:58;6.50;1.00
15937;DHT22;9163;48.818;8.976;2024-02-26T04:55:25;6.40;1.00
15937;DHT22;9163;48.818;8.976;2024-02-26T04:57:53;6.30;1.00
15937;DHT22;9163;48.818;8.976;2024-02-26T05:00:21;6.30;1.00
15937;DHT22;9163;48.818;8.976;2024-02-26T05:02:48;6.20;1.00
15937;DHT22;9163;48.818;8.976;2024-02-26T05:05:15;6.20;1.00
15937;DHT22;9163;48.818;8.976;2024-02-26T05:07:42;6.20;1.00
15937;DHT22;9163;48.818;8.976;2024-02-26T05:10:10;6.20;1.00
15937;DHT22;9163;48.818;8.976;2024-02-26T05:12:37;6.20;1.00
15937;DHT22;9163;48.818;8.976;2024-02-26T05:15:07;6.20;1.00
15937;DHT22;9163;48.818;8.976;2024-02-26T05:17:34;6.20;1.00
15937;DHT22;9163;48.818;8.976;2024-02-26T05:20:01;6.30;1.00
15937;DHT22;9163;48.818;8.976;2024-02-26T05:22:29;6.30;1.00
15937;DHT22;9163;48.818;8.976;2024-02-26T05:24:56;6.40;1.00
15937;DHT22;9163;48.818;8.976;2024-02-26T05:27:23;6.40;1.00
15937;DHT22;9163;48.818;8.976;2024-02-26T05:29:51;6.40;1.00
15937;DHT22;9163;48.818;8.976;2024-02-26T05:32:21;6.50;1.00
15937;DHT22;9163;48.818;8.976;2024-02-26T05:34:48;6.40;1.00
15937;DHT22;9163;48.818;8.976;2024-02-26T05:37:16;6.30;1.00
15937;DHT22;9163;48.818;8.976;2024-02-26T05:39:43;6.10;1.00
15937;DHT22;9163;48.818;8.976;2024-02-26T05:42:10;5.90;28.60
15937;DHT22;9163;48.818;8.976;2024-02-26T05:44:37;5.90;77.10
15937;DHT22;9163;48.818;8.976;2024-02-26T05:47:04;5.90;59.70
15937;DHT22;9163;48.818;8.976;2024-02-26T05:49:33;6.00;51.20
15937;DHT22;9163;48.818;8.976;2024-02-26T05:52:00;6.00;45.00
15937;DHT22;9163;48.818;8.976;2024-02-26T05:54:28;6.00;21.10
15937;DHT22;9163;48.818;8.976;2024-02-26T05:56:55;6.10;35.60
15937;DHT22;9163;48.818;8.976;2024-02-26T05:59:22;6.00;47.00
15937;DHT22;9163;48.818;8.976;2024-02-26T06:01:49;6.00;61.40
15937;DHT22;9163;48.818;8.976;2024-02-26T06:04:17;6.00;90.70
15937;DHT22;9163;48.818;8.976;2024-02-26T06:06:45;6.00;94.50
15937;DHT22;9163;48.818;8.976;2024-02-26T06:09:13;5.90;77.10
15937;DHT22;9163;48.818;8.976;2024-02-26T06:11:40;6.00;73.70
15937;DHT22;9163;48.818;8.976;2024-02-26T06:14:07;6.00;57.60
15937;DHT22;9163;48.818;8.976;2024-02-26T06:16:37;6.00;80.20
15937;DHT22;9163;48.818;8.976;2024-02-26T06:19:11;6.00;80.50
15937;DHT22;9163;48.818;8.976;2024-02-26T06:21:39;6.00;82.80
15937;DHT22;9163;48.818;8.976;2024-02-26T06:24:07;5.90;85.50
15937;DHT22;9163;48.818;8.976;2024-02-26T06:26:34;5.90;96.10
15937;DHT22;9163;48.818;8.976;2024-02-26T06:29:02;5.90;99.90
15937;DHT22;9163;48.818;8.976;2024-02-26T06:31:29;5.90;99.90
15937;DHT22;9163;48.818;8.976;2024-02-26T06:33:56;5.90;99.90
15937;DHT22;9163;48.818;8.976;2024-02-26T06:36:23;5.80;99.90
15937;DHT22;9163;48.818;8.976;2024-02-26T06:38:51;5.90;99.90
15937;DHT22;9163;48.818;8.976;2024-02-26T06:41:21;5.90;99.90
15937;DHT22;9163;48.818;8.976;2024-02-26T06:43:53;5.80;99.90
15937;DHT22;9163;48.818;8.976;2024-02-26T06:46:20;5.80;99.90
15937;DHT22;9163;48.818;8.976;2024-02-26T06:48:48;5.80;99.90
15937;DHT22;9163;48.818;8.976;2024-02-26T06:51:15;5.80;99.90
15937;DHT22;9163;48.818;8.976;2024-02-26T06:53:42;5.80;99.90
15937;DHT22;9163;48.818;8.976;2024-02-26T06:56:09;5.80;99.90
15937;DHT22;9163;48.818;8.976;2024-02-26T06:58:38;5.80;99.90
15937;DHT22;9163;48.818;8.976;2024-02-26T07:01:05;5.70;99.90
15937;DHT22;9163;48.818;8.976;2024-02-26T07:03:34;5.80;99.90
15937;DHT22;9163;48.818;8.976;2024-02-26T07:06:02;5.80;99.90
15937;DHT22;9163;48.818;8.976;2024-02-26T07:08:29;5.80;99.90
15937;DHT22;9163;48.818;8.976;2024-02-26T07:10:57;5.80;99.90
15937;DHT22;9163;48.818;8.976;2024-02-26T07:13:24;5.70;99.90
15937;DHT22;9163;48.818;8.976;2024-02-26T07:15:53;5.70;99.90
15937;DHT22;9163;48.818;8.976;2024-02-26T07:18:20;5.70;99.90
15937;DHT22;9163;48.818;8.976;2024-02-26T07:20:47;5.70;99.90
15937;DHT22;9163;48.818;8.976;2024-02-26T07:23:14;5.70;99.90
15937;DHT22;9163;48.818;8.976;2024-02-26T07:25:41;5.70;99.90
15937;DHT22;9163;48.818;8.976;2024-02-26T07:28:11;5.70;99.90
15937;DHT22;9163;48.818;8.976;2024-02-26T07:30:38;5.70;99.90
15937;DHT22;9163;48.818;8.976;2024-02-26T07:33:06;5.70;99.90
15937;DHT22;9163;48.818;8.976;2024-02-26T07:35:34;5.70;99.90
15937;DHT22;9163;48.818;8.976;2024-02-26T07:38:02;5.70;99.90
15937;DHT22;9163;48.818;8.976;2024-02-26T07:40:30;5.70;99.90
15937;DHT22;9163;48.818;8.976;2024-02-26T07:42:57;5.80;99.90
15937;DHT22;9163;48.818;8.976;2024-02-26T07:45:24;5.90;99.90
15937;DHT22;9163;48.818;8.976;2024-02-26T07:47:51;5.90;99.90
15937;DHT22;9163;48.818;8.976;2024-02-26T07:50:20;6.00;99.90
15937;DHT22;9163;48.818;8.976;2024-02-26T07:52:47;6.00;99.90
15937;DHT22;9163;48.818;8.976;2024-02-26T07:55:17;6.00;99.90
15937;DHT22;9163;48.818;8.976;2024-02-26T07:57:45;6.00;99.90
15937;DHT22;9163;48.818;8.976;2024-02-26T08:00:13;6.00;99.90
15937;DHT22;9163;48.818;8.976;2024-02-26T08:02:42;6.10;99.90
15937;DHT22;9163;48.818;8.976;2024-02-26T08:05:10;6.10;99.90
15937;DHT22;9163;48.818;8.976;2024-02-26T08:07:39;6.20;99.90
15937;DHT22;9163;48.818;8.976;2024-02-26T08:10:07;6.30;99.90
15937;DHT22;9163;48.818;8.976;2024-02-26T08:12:34;6.30;99.90
15937;DHT22;9163;48.818;8.976;2024-02-26T08:15:02;6.30;99.90
15937;DHT22;9163;48.818;8.976;2024-02-26T08:17:29;6.30;99.90
15937;DHT22;9163;48.818;8.976;2024-02-26T08:19:56;6.50;99.90
15937;DHT22;9163;48.818;8.976;2024-02-26T08:22:24;6.60;99.90
15937;DHT22;9163;48.818;8.976;2024-02-26T08:24:52;6.70;99.90
15937;DHT22;9163;48.818;8.976;2024-02-26T08:27:19;6.80;99.90
15937;DHT22;9163;48.818;8.976;2024-02-26T08:29:47;7.00;99.90
15937;DHT22;9163;48.818;8.976;2024-02-26T08:32:14;7.00;99.90
15937;DHT22;9163;48.818;8.976;2024-02-26T08:34:41;7.10;99.90
15937;DHT22;9163;48.818;8.976;2024-02-26T08:37:09;7.20;99.90
15937;DHT22;9163;48.818;8.976;2024-02-26T08:39:37;7.20;99.30
15937;DHT22;9163;48.818;8.976;2024-02-26T08:42:06;7.30;91.00
15937;DHT22;9163;48.818;8.976;2024-02-26T08:44:34;7.40;99.90
15937;DHT22;9163;48.818;8.976;2024-02-26T08:47:01;7.50;94.90
15937;DHT22;9163;48.818;8.976;2024-02-26T08:49:28;7.60;88.50
15937;DHT22;9163;48.818;8.976;2024-02-26T08:51:55;7.60;53.70
15937;DHT22;9163;48.818;8.976;2024-02-26T08:54:22;7.50;39.70
15937;DHT22;9163;48.818;8.976;2024-02-26T08:56:50;7.60;50.00
15937;DHT22;9163;48.818;8.976;2024-02-26T08:59:18;7.70;51.50
15937;DHT22;9163;48.818;8.976;2024-02-26T09:01:48;7.60;23.20
15937;DHT22;9163;48.818;8.976;2024-02-26T09:04:15;7.70;21.20
15937;DHT22;9163;48.818;8.976;2024-02-26T09:06:42;7.80;28.00
15937;DHT22;9163;48.818;8.976;2024-02-26T09:09:10;7.70;8.30
15937;DHT22;9163;48.818;8.976;2024-02-26T09:11:37;7.70;17.70
15937;DHT22;9163;48.818;8.976;2024-02-26T09:14:04;7.90;23.30
15937;DHT22;9163;48.818;8.976;2024-02-26T09:16:33;7.90;23.90
15937;DHT22;9163;48.818;8.976;2024-02-26T09:19:00;8.10;14.80
15937;DHT22;9163;48.818;8.976;2024-02-26T09:21:28;8.30;7.00
15937;DHT22;9163;48.818;8.976;2024-02-26T09:23:56;8.50;10.60
15937;DHT22;9163;48.818;8.976;2024-02-26T09:26:23;8.70;31.40
15937;DHT22;9163;48.818;8.976;2024-02-26T09:28:51;8.80;30.40
15937;DHT22;9163;48.818;8.976;2024-02-26T09:31:18;8.90;17.40
15937;DHT22;9163;48.818;8.976;2024-02-26T09:33:46;9.10;13.90
15937;DHT22;9163;48.818;8.976;2024-02-26T09:36:14;9.20;1.00
15937;DHT22;9163;48.818;8.976;2024-02-26T09:38:41;9.30;1.00
15937;DHT22;9163;48.818;8.976;2024-02-26T09:41:14;9.30;1.00
15937;DHT22;9163;48.818;8.976;2024-02-26T09:43:44;9.30;1.00
15937;DHT22;9163;48.818;8.976;2024-02-26T09:46:12;9.40;1.00
15937;DHT22;9163;48.818;8.976;2024-02-26T09:48:40;9.30;1.00
15937;DHT22;9163;48.818;8.976;2024-02-26T09:51:11;9.40;1.00
15937;DHT22;9163;48.818;8.976;2024-02-26T09:53:39;9.60;1.00
15937;DHT22;9163;48.818;8.976;2024-02-26T09:56:12;9.90;1.00
15937;DHT22;9163;48.818;8.976;2024-02-26T09:58:41;10.20;1.00
15937;DHT22;9163;48.818;8.976;2024-02-26T10:01:12;10.50;1.00
15937;DHT22;9163;48.818;8.976;2024-02-26T10:03:41;10.80;1.00
15937;DHT22;9163;48.818;8.976;2024-02-26T10:06:12;10.90;1.00
15937;DHT22;9163;48.818;8.976;2024-02-26T10:08:39;11.30;1.00
15937;DHT22;9163;48.818;8.976;2024-02-26T10:11:07;12.10;1.00
15937;DHT22;9163;48.818;8.976;2024-02-26T10:13:35;12.50;1.00
15937;DHT22;9163;48.818;8.976;2024-02-26T10:16:02;12.50;99.90
15937;DHT22;9163;48.818;8.976;2024-02-26T10:18:45;12.70;99.90
15937;DHT22;9163;48.818;8.976;2024-02-26T10:21:16;12.80;99.90
15937;DHT22;9163;48.818;8.976;2024-02-26T10:23:43;12.70;99.90
15937;DHT22;9163;48.818;8.976;2024-02-26T10:26:12;12.20;99.90
15937;DHT22;9163;48.818;8.976;2024-02-26T10:28:39;11.70;99.90
15937;DHT22;9163;48.818;8.976;2024-02-26T10:31:07;11.40;99.90
15937;DHT22;9163;48.818;8.976;2024-02-26T10:33:35;11.40;99.90
15937;DHT22;9163;48.818;8.976;2024-02-26T10:36:03;11.50;99.90
15937;DHT22;9163;48.818;8.976;2024-02-26T10:38:33;11.60;99.90
15937;DHT22;9163;48.818;8.976;2024-02-26T10:41:01;12.00;1.00
15937;DHT22;9163;48.818;8.976;2024-02-26T10:43:29;12.60;1.00
15937;DHT22;9163;48.818;8.976;2024-02-26T10:45:56;13.10;1.00
15937;DHT22;9163;48.818;8.976;2024-02-26T10:48:24;13.50;1.00
15937;DHT22;9163;48.818;8.976;2024-02-26T10:50:51;13.80;99.90
15937;DHT22;9163;48.818;8.976;2024-02-26T10:53:21;14.20;99.90
15937;DHT22;9163;48.818;8.976;2024-02-26T10:55:57;15.10;99.90
15937;DHT22;9163;48.818;8.976;2024-02-26T10:58:26;16.20;99.90
15937;DHT22;9163;48.818;8.976;2024-02-26T11:00:56;17.30;1.00
15937;DHT22;9163;48.818;8.976;2024-02-26T11:03:24;18.30;1.00
15937;DHT22;9163;48.818;8.976;2024-02-26T11:05:52;18.80;1.00
15937;DHT22;9163;48.818;8.976;2024-02-26T11:08:20;19.70;1.00
15937;DHT22;9163;48.818;8.976;2024-02-26T11:10:50;20.50;99.90
15937;DHT22;9163;48.818;8.976;2024-02-26T11:13:20;20.50;99.90
15937;DHT22;9163;48.818;8.976;2024-02-26T11:15:48;21.10;1.00
15937;DHT22;9163;48.818;8.976;2024-02-26T11:18:16;21.80;1.00
15937;DHT22;9163;48.818;8.976;2024-02-26T11:20:44;21.90;1.00
15937;DHT22;9163;48.818;8.976;2024-02-26T11:23:12;22.50;1.00
15937;DHT22;9163;48.818;8.976;2024-02-26T11:25:41;22.90;1.00
15937;DHT22;9163;48.818;8.976;2024-02-26T11:28:14;23.40;1.00
15937;DHT22;9163;48.818;8.976;2024-02-26T11:30:45;23.30;1.00
15937;DHT22;9163;48.818;8.976;2024-02-26T11:33:14;23.00;1.00
15937;DHT22;9163;48.818;8.976;2024-02-26T11:35:42;23.10;99.90
15937;DHT22;9163;48.818;8.976;2024-02-26T11:38:17;23.10;99.90
15937;DHT22;9163;48.818;8.976;2024-02-26T11:40:45;22.60;99.90
15937;DHT22;9163;48.818;8.976;2024-02-26T11:43:13;22.00;99.90
15937;DHT22;9163;48.818;8.976;2024-02-26T11:45:53;21.60;99.90
15937;DHT22;9163;48.818;8.976;2024-02-26T11:48:24;21.60;99.90
15937;DHT22;9163;48.818;8.976;2024-02-26T11:50:52;22.50;99.90
15937;DHT22;9163;48.818;8.976;2024-02-26T11:53:24;23.50;99.90
15937;DHT22;9163;48.818;8.976;2024-02-26T11:59:03;26.40;99.90
15937;DHT22;9163;48.818;8.976;2024-02-26T12:01:40;27.40;99.90
15937;DHT22;9163;48.818;8.976;2024-02-26T12:04:12;26.60;99.90
15937;DHT22;9163;48.818;8.976;2024-02-26T12:06:50;25.60;62.50
15937;DHT22;9163;48.818;8.976;2024-02-26T12:09:38;24.40;1.00
15937;DHT22;9163;48.818;8.976;2024-02-26T12:12:07;23.40;1.00
15937;DHT22;9163;48.818;8.976;2024-02-26T12:14:37;22.50;1.00
15937;DHT22;9163;48.818;8.976;2024-02-26T12:17:04;22.10;1.00
15937;DHT22;9163;48.818;8.976;2024-02-26T12:19:33;21.40;1.00
15937;DHT22;9163;48.818;8.976;2024-02-26T12:22:02;20.90;1.00
15937;DHT22;9163;48.818;8.976;2024-02-26T12:24:29;20.10;1.00
15937;DHT22;9163;48.818;8.976;2024-02-26T12:26:57;19.50;1.00
15937;DHT22;9163;48.818;8.976;2024-02-26T12:29:24;19.10;1.00
15937;DHT22;9163;48.818;8.976;2024-02-26T12:31:53;18.40;1.00
15937;DHT22;9163;48.818;8.976;2024-02-26T12:34:21;18.20;1.00
15937;DHT22;9163;48.818;8.976;2024-02-26T12:36:48;17.90;1.00
15937;DHT22;9163;48.818;8.976;2024-02-26T12:39:15;17.70;1.00
15937;DHT22;9163;48.818;8.976;2024-02-26T12:41:44;17.30;1.00
15937;DHT22;9163;48.818;8.976;2024-02-26T12:44:15;17.30;1.00
15937;DHT22;9163;48.818;8.976;2024-02-26T12:46:42;17.10;1.00
15937;DHT22;9163;48.818;8.976;2024-02-26T12:49:15;17.20;1.00
15937;DHT22;9163;48.818;8.976;2024-02-26T12:51:43;17.20;1.00
15937;DHT22;9163;48.818;8.976;2024-02-26T12:54:11;17.30;1.00
15937;DHT22;9163;48.818;8.976;2024-02-26T12:56:39;17.20;1.00
15937;DHT22;9163;48.818;8.976;2024-02-26T12:59:06;17.40;1.00
15937;DHT22;9163;48.818;8.976;2024-02-26T13:01:34;17.60;1.00
15937;DHT22;9163;48.818;8.976;2024-02-26T13:04:02;17.90;1.00
15937;DHT22;9163;48.818;8.976;2024-02-26T13:06:33;18.70;1.00
15937;DHT22;9163;48.818;8.976;2024-02-26T13:09:01;19.70;1.00
15937;DHT22;9163;48.818;8.976;2024-02-26T13:11:30;20.50;1.00
15937;DHT22;9163;48.818;8.976;2024-02-26T13:13:58;20.90;1.00
15937;DHT22;9163;48.818;8.976;2024-02-26T13:16:26;21.20;1.00
15937;DHT22;9163;48.818;8.976;2024-02-26T13:18:53;21.80;1.00
15937;DHT22;9163;48.818;8.976;2024-02-26T13:21:21;21.50;1.00
15937;DHT22;9163;48.818;8.976;2024-02-26T13:23:52;21.60;1.00
15937;DHT22;9163;48.818;8.976;2024-02-26T13:26:22;20.90;1.00
15937;DHT22;9163;48.818;8.976;2024-02-26T13:29:00;22.20;1.00
15937;DHT22;9163;48.818;8.976;2024-02-26T13:31:27;24.60;1.00
15937;DHT22;9163;48.818;8.976;2024-02-26T13:33:54;26.10;1.00
15937;DHT22;9163;48.818;8.976;2024-02-26T13:36:22;25.40;1.00
15937;DHT22;9163;48.818;8.976;2024-02-26T13:38:54;25.40;1.00
15937;DHT22;9163;48.818;8.976;2024-02-26T13:41:22;25.10;1.00
15937;DHT22;9163;48.818;8.976;2024-02-26T13:43:50;24.70;1.00
15937;DHT22;9163;48.818;8.976;2024-02-26T13:46:17;24.80;1.00
15937;DHT22;9163;48.818;8.976;2024-02-26T13:48:44;24.70;1.00
15937;DHT22;9163;48.818;8.976;2024-02-26T13:51:12;24.30;1.00
15937;DHT22;9163;48.818;8.976;2024-02-26T13:53:39;24.30;1.00
15937;DHT22;9163;48.818;8.976;2024-02-26T13:56:08;24.90;1.00
15937;DHT22;9163;48.818;8.976;2024-02-26T13:58:36;25.30;1.00
15937;DHT22;9163;48.818;8.976;2024-02-26T14:01:04;25.70;1.00
15937;DHT22;9163;48.818;8.976;2024-02-26T14:03:31;24.80;1.00
15937;DHT22;9163;48.818;8.976;2024-02-26T14:05:58;24.70;1.00
15937;DHT22;9163;48.818;8.976;2024-02-26T14:08:26;24.30;99.90
15937;DHT22;9163;48.818;8.976;2024-02-26T14:10:53;23.30;99.90
15937;DHT22;9163;48.818;8.976;2024-02-26T14:13:22;23.00;99.90
15937;DHT22;9163;48.818;8.976;2024-02-26T14:15:49;24.30;1.00
15937;DHT22;9163;48.818;8.976;2024-02-26T14:18:16;25.90;1.00
15937;DHT22;9163;48.818;8.976;2024-02-26T14:20:44;26.10;1.00
15937;DHT22;9163;48.818;8.976;2024-02-26T14:23:11;25.80;1.00
15937;DHT22;9163;48.818;8.976;2024-02-26T14:25:38;24.50;1.00
15937;DHT22;9163;48.818;8.976;2024-02-26T14:28:06;23.40;99.90
15937;DHT22;9163;48.818;8.976;2024-02-26T14:30:34;23.10;99.90
15937;DHT22;9163;48.818;8.976;2024-02-26T14:33:02;23.60;1.00
15937;DHT22;9163;48.818;8.976;2024-02-26T14:35:29;25.10;1.00
15937;DHT22;9163;48.818;8.976;2024-02-26T14:37:57;26.20;1.00
15937;DHT22;9163;48.818;8.976;2024-02-26T14:40:26;26.80;1.00
15937;DHT22;9163;48.818;8.976;2024-02-26T14:42:54;26.70;1.00
15937;DHT22;9163;48.818;8.976;2024-02-26T14:45:22;26.60;1.00
15937;DHT22;9163;48.818;8.976;2024-02-26T14:47:51;27.20;1.00
15937;DHT22;9163;48.818;8.976;2024-02-26T14:50:18;27.60;1.00
15937;DHT22;9163;48.818;8.976;2024-02-26T14:52:45;27.30;1.00
15937;DHT22;9163;48.818;8.976;2024-02-26T14:55:13;25.90;1.00
15937;DHT22;9163;48.818;8.976;2024-02-26T14:57:40;24.60;99.90
15937;DHT22;9163;48.818;8.976;2024-02-26T15:00:09;23.60;99.90
15937;DHT22;9163;48.818;8.976;2024-02-26T15:02:36;23.00;99.90
15937;DHT22;9163;48.818;8.976;2024-02-26T15:05:06;21.70;99.90
15937;DHT22;9163;48.818;8.976;2024-02-26T15:07:34;20.60;99.90
15937;DHT22;9163;48.818;8.976;2024-02-26T15:10:06;20.10;99.90
15937;DHT22;9163;48.818;8.976;2024-02-26T15:12:34;19.20;99.90
15937;DHT22;9163;48.818;8.976;2024-02-26T15:15:01;18.50;99.90
15937;DHT22;9163;48.818;8.976;2024-02-26T15:17:28;18.00;99.90
15937;DHT22;9163;48.818;8.976;2024-02-26T15:19:58;17.60;99.90
15937;DHT22;9163;48.818;8.976;2024-02-26T15:22:27;17.40;99.90
15937;DHT22;9163;48.818;8.976;2024-02-26T15:24:54;16.90;99.90
15937;DHT22;9163;48.818;8.976;2024-02-26T15:27:21;16.80;99.90
15937;DHT22;9163;48.818;8.976;2024-02-26T15:29:49;16.40;99.90
15937;DHT22;9163;48.818;8.976;2024-02-26T15:32:22;16.30;99.90
15937;DHT22;9163;48.818;8.976;2024-02-26T15:34:50;16.10;99.90
15937;DHT22;9163;48.818;8.976;2024-02-26T15:37:17;15.80;99.90
15937;DHT22;9163;48.818;8.976;2024-02-26T15:39:47;15.70;99.90
15937;DHT22;9163;48.818;8.976;2024-02-26T15:42:14;15.70;99.90
15937;DHT22;9163;48.818;8.976;2024-02-26T15:44:41;15.50;99.90
15937;DHT22;9163;48.818;8.976;2024-02-26T15:47:09;15.60;99.90
15937;DHT22;9163;48.818;8.976;2024-02-26T15:49:36;15.60;99.90
15937;DHT22;9163;48.818;8.976;2024-02-26T15:52:04;15.80;99.90
15937;DHT22;9163;48.818;8.976;2024-02-26T15:54:31;15.70;99.90
15937;DHT22;9163;48.818;8.976;2024-02-26T15:57:00;15.40;99.90
15937;DHT22;9163;48.818;8.976;2024-02-26T15:59:27;15.10;99.90
15937;DHT22;9163;48.818;8.976;2024-02-26T16:01:55;14.90;99.90
15937;DHT22;9163;48.818;8.976;2024-02-26T16:04:22;14.70;99.90
15937;DHT22;9163;48.818;8.976;2024-02-26T16:06:53;14.40;99.90
15937;DHT22;9163;48.818;8.976;2024-02-26T16:09:21;14.30;99.90
15937;DHT22;9163;48.818;8.976;2024-02-26T16:11:49;14.00;1.00
15937;DHT22;9163;48.818;8.976;2024-02-26T16:14:28;13.80;1.00